sensor_id;sensor_type;location;lat;lon;timestamp;temperature;humidity
22153;DHT22;11242;50.536;12.688;2022-12-29T00:02:13;7.30;99.90
22153;DHT22;11242;50.536;12.688;2022-12-29T00:04:39;7.40;99.90
22153;DHT22;11242;50.536;12.688;2022-12-29T00:07:05;7.40;99.90
22153;DHT22;11242;50.536;12.688;2022-12-29T00:09:31;7.40;99.90
22153;DHT22;11242;50.536;12.688;2022-12-29T00:11:57;7.40;99.90
22153;DHT22;11242;50.536;12.688;2022-12-29T00:14:23;7.40;99.90
22153;DHT22;11242;50.536;12.688;2022-12-29T00:17:07;7.40;99.90
22153;DHT22;11242;50.536;12.688;2022-12-29T00:19:33;7.40;99.90
22153;DHT22;11242;50.536;12.688;2022-12-29T00:22:17;7.30;99.90
22153;DHT22;11242;50.536;12.688;2022-12-29T00:25:02;7.30;99.90
22153;DHT22;11242;50.536;12.688;2022-12-29T00:27:34;7.30;99.90
22153;DHT22;11242;50.536;12.688;2022-12-29T00:30:21;7.30;99.90
22153;DHT22;11242;50.536;12.688;2022-12-29T00:33:17;7.20;99.90
22153;DHT22;11242;50.536;12.688;2022-12-29T00:38:52;7.40;99.90
22153;DHT22;11242;50.536;12.688;2022-12-29T00:41:37;7.30;99.90
22153;DHT22;11242;50.536;12.688;2022-12-29T00:44:23;7.30;99.90
22153;DHT22;11242;50.536;12.688;2022-12-29T00:46:49;7.30;99.90
22153;DHT22;11242;50.536;12.688;2022-12-29T00:49:14;7.40;99.90
22153;DHT22;11242;50.536;12.688;2022-12-29T00:51:57;7.40;99.90
22153;DHT22;11242;50.536;12.688;2022-12-29T00:54:24;7.40;99.90
22153;DHT22;11242;50.536;12.688;2022-12-29T00:56:50;7.60;99.90
22153;DHT22;11242;50.536;12.688;2022-12-29T00:59:17;7.50;99.90
22153;DHT22;11242;50.536;12.688;2022-12-29T01:01:47;7.50;99.90
22153;DHT22;11242;50.536;12.688;2022-12-29T01:04:13;7.40;99.90
22153;DHT22;11242;50.536;12.688;2022-12-29T01:06:39;7.30;99.90
22153;DHT22;11242;50.536;12.688;2022-12-29T01:09:08;7.30;99.90
22153;DHT22;11242;50.536;12.688;2022-12-29T01:11:53;7.30;99.90
22153;DHT22;11242;50.536;12.688;2022-12-29T01:14:19;7.20;99.90
22153;DHT22;11242;50.536;12.688;2022-12-29T01:16:45;7.20;99.90
22153;DHT22;11242;50.536;12.688;2022-12-29T01:19:12;7.10;99.90
22153;DHT22;11242;50.536;12.688;2022-12-29T01:21:37;7.10;99.90
22153;DHT22;11242;50.536;12.688;2022-12-29T01:24:03;7.20;99.90
22153;DHT22;11242;50.536;12.688;2022-12-29T01:26:29;7.20;99.90
22153;DHT22;11242;50.536;12.688;2022-12-29T01:28:55;7.10;99.90
22153;DHT22;11242;50.536;12.688;2022-12-29T01:31:20;7.20;99.90
22153;DHT22;11242;50.536;12.688;2022-12-29T01:33:46;7.20;99.90
22153;DHT22;11242;50.536;12.688;2022-12-29T01:36:14;7.10;99.90
22153;DHT22;11242;50.536;12.688;2022-12-29T01:38:41;7.20;99.90
22153;DHT22;11242;50.536;12.688;2022-12-29T01:41:08;7.30;99.90
22153;DHT22;11242;50.536;12.688;2022-12-29T01:48:38;7.30;99.90
22153;DHT22;11242;50.536;12.688;2022-12-29T01:51:04;7.40;99.90
22153;DHT22;11242;50.536;12.688;2022-12-29T01:53:33;7.30;99.90
22153;DHT22;11242;50.536;12.688;2022-12-29T01:56:03;7.30;99.90
22153;DHT22;11242;50.536;12.688;2022-12-29T01:58:34;7.50;99.90
22153;DHT22;11242;50.536;12.688;2022-12-29T02:01:02;7.40;99.90
22153;DHT22;11242;50.536;12.688;2022-12-29T02:03:28;7.50;99.90
22153;DHT22;11242;50.536;12.688;2022-12-29T02:06:11;7.40;99.90
22153;DHT22;11242;50.536;12.688;2022-12-29T02:08:38;7.40;99.90
22153;DHT22;11242;50.536;12.688;2022-12-29T02:11:04;7.50;99.90
22153;DHT22;11242;50.536;12.688;2022-12-29T02:13:33;7.50;99.90
22153;DHT22;11242;50.536;12.688;2022-12-29T02:36:38;7.50;99.90
22153;DHT22;11242;50.536;12.688;2022-12-29T02:39:27;7.40;99.90
22153;DHT22;11242;50.536;12.688;2022-12-29T02:42:14;7.40;99.90
22153;DHT22;11242;50.536;12.688;2022-12-29T02:44:55;7.40;99.90
22153;DHT22;11242;50.536;12.688;2022-12-29T02:47:36;7.50;99.90
22153;DHT22;11242;50.536;12.688;2022-12-29T02:52:40;7.60;99.90
22153;DHT22;11242;50.536;12.688;2022-12-29T02:55:10;7.60;99.90
22153;DHT22;11242;50.536;12.688;2022-12-29T02:57:37;7.50;99.90
22153;DHT22;11242;50.536;12.688;2022-12-29T03:03:06;7.50;99.90
22153;DHT22;11242;50.536;12.688;2022-12-29T03:11:09;7.50;99.90
22153;DHT22;11242;50.536;12.688;2022-12-29T03:16:57;7.60;99.90
22153;DHT22;11242;50.536;12.688;2022-12-29T03:19:35;7.60;99.90
22153;DHT22;11242;50.536;12.688;2022-12-29T03:22:04;7.60;99.90
22153;DHT22;11242;50.536;12.688;2022-12-29T03:27:50;7.70;99.90
22153;DHT22;11242;50.536;12.688;2022-12-29T03:30:17;7.70;99.90
22153;DHT22;11242;50.536;12.688;2022-12-29T03:32:44;7.70;99.90
22153;DHT22;11242;50.536;12.688;2022-12-29T03:35:15;7.70;99.90
22153;DHT22;11242;50.536;12.688;2022-12-29T03:37:51;7.70;99.90
22153;DHT22;11242;50.536;12.688;2022-12-29T03:40:20;7.70;99.90
22153;DHT22;11242;50.536;12.688;2022-12-29T03:42:47;7.70;99.90
22153;DHT22;11242;50.536;12.688;2022-12-29T03:45:13;7.60;99.90
22153;DHT22;11242;50.536;12.688;2022-12-29T03:47:39;7.70;99.90
22153;DHT22;11242;50.536;12.688;2022-12-29T03:50:05;7.70;99.90
22153;DHT22;11242;50.536;12.688;2022-12-29T03:52:35;7.60;99.90
22153;DHT22;11242;50.536;12.688;2022-12-29T03:55:00;7.70;99.90
22153;DHT22;11242;50.536;12.688;2022-12-29T03:57:26;7.70;99.90
22153;DHT22;11242;50.536;12.688;2022-12-29T04:00:02;7.70;99.90
22153;DHT22;11242;50.536;12.688;2022-12-29T04:02:29;7.60;99.90
22153;DHT22;11242;50.536;12.688;2022-12-29T04:04:55;7.70;99.90
22153;DHT22;11242;50.536;12.688;2022-12-29T04:07:22;7.70;99.90
22153;DHT22;11242;50.536;12.688;2022-12-29T04:09:48;7.70;99.90
22153;DHT22;11242;50.536;12.688;2022-12-29T04:12:20;7.60;99.90
22153;DHT22;11242;50.536;12.688;2022-12-29T04:14:46;7.60;99.90
22153;DHT22;11242;50.536;12.688;2022-12-29T04:17:11;7.60;99.90
22153;DHT22;11242;50.536;12.688;2022-12-29T04:19:38;7.70;99.90
22153;DHT22;11242;50.536;12.688;2022-12-29T04:22:04;7.70;99.90
22153;DHT22;11242;50.536;12.688;2022-12-29T04:24:29;7.60;99.90
22153;DHT22;11242;50.536;12.688;2022-12-29T04:26:55;7.60;99.90
22153;DHT22;11242;50.536;12.688;2022-12-29T04:29:29;7.60;99.90
22153;DHT22;11242;50.536;12.688;2022-12-29T04:32:07;7.70;99.90
22153;DHT22;11242;50.536;12.688;2022-12-29T04:34:37;7.70;99.90
22153;DHT22;11242;50.536;12.688;2022-12-29T04:37:02;7.80;99.90
22153;DHT22;11242;50.536;12.688;2022-12-29T04:39:28;7.80;99.90
22153;DHT22;11242;50.536;12.688;2022-12-29T04:41:53;7.80;99.90
22153;DHT22;11242;50.536;12.688;2022-12-29T04:44:20;7.70;99.90
22153;DHT22;11242;50.536;12.688;2022-12-29T04:47:09;7.80;99.90
22153;DHT22;11242;50.536;12.688;2022-12-29T04:49:43;7.70;99.90
22153;DHT22;11242;50.536;12.688;2022-12-29T04:52:21;7.80;99.90
22153;DHT22;11242;50.536;12.688;2022-12-29T04:54:47;7.70;99.90
22153;DHT22;11242;50.536;12.688;2022-12-29T04:57:17;7.70;99.90
22153;DHT22;11242;50.536;12.688;2022-12-29T04:59:48;7.70;99.90
22153;DHT22;11242;50.536;12.688;2022-12-29T05:02:14;7.60;99.90
22153;DHT22;11242;50.536;12.688;2022-12-29T05:04:40;7.60;99.90
22153;DHT22;11242;50.536;12.688;2022-12-29T05:07:06;7.60;99.90
22153;DHT22;11242;50.536;12.688;2022-12-29T05:09:31;7.50;99.90
22153;DHT22;11242;50.536;12.688;2022-12-29T05:11:59;7.50;99.90
22153;DHT22;11242;50.536;12.688;2022-12-29T05:14:24;7.50;99.90
22153;DHT22;11242;50.536;12.688;2022-12-29T05:16:52;7.40;99.90
22153;DHT22;11242;50.536;12.688;2022-12-29T05:19:18;7.40;99.90
22153;DHT22;11242;50.536;12.688;2022-12-29T05:21:44;7.50;99.90
22153;DHT22;11242;50.536;12.688;2022-12-29T05:24:09;7.60;99.90
22153;DHT22;11242;50.536;12.688;2022-12-29T05:26:35;7.50;99.90
22153;DHT22;11242;50.536;12.688;2022-12-29T05:29:09;7.40;99.90
22153;DHT22;11242;50.536;12.688;2022-12-29T05:31:34;7.50;99.90
22153;DHT22;11242;50.536;12.688;2022-12-29T05:34:02;7.30;99.90
22153;DHT22;11242;50.536;12.688;2022-12-29T05:36:28;7.30;99.90
22153;DHT22;11242;50.536;12.688;2022-12-29T05:39:00;7.30;99.90
22153;DHT22;11242;50.536;12.688;2022-12-29T05:41:27;7.30;99.90
22153;DHT22;11242;50.536;12.688;2022-12-29T05:43:58;7.50;99.90
22153;DHT22;11242;50.536;12.688;2022-12-29T05:46:30;7.50;99.90
22153;DHT22;11242;50.536;12.688;2022-12-29T05:49:16;7.60;99.90
22153;DHT22;11242;50.536;12.688;2022-12-29T05:51:57;7.60;99.90
22153;DHT22;11242;50.536;12.688;2022-12-29T05:54:23;7.60;99.90
22153;DHT22;11242;50.536;12.688;2022-12-29T05:56:49;7.60;99.90
22153;DHT22;11242;50.536;12.688;2022-12-29T05:59:15;7.60;99.90
22153;DHT22;11242;50.536;12.688;2022-12-29T06:01:41;7.70;99.90
22153;DHT22;11242;50.536;12.688;2022-12-29T06:04:07;7.80;99.90
22153;DHT22;11242;50.536;12.688;2022-12-29T06:06:33;7.80;99.90
22153;DHT22;11242;50.536;12.688;2022-12-29T06:08:58;7.80;99.90
22153;DHT22;11242;50.536;12.688;2022-12-29T06:11:24;7.70;99.90
22153;DHT22;11242;50.536;12.688;2022-12-29T06:13:54;7.70;99.90
22153;DHT22;11242;50.536;12.688;2022-12-29T06:16:19;7.70;99.90
22153;DHT22;11242;50.536;12.688;2022-12-29T06:18:48;7.70;99.90
22153;DHT22;11242;50.536;12.688;2022-12-29T06:21:14;7.70;99.90
22153;DHT22;11242;50.536;12.688;2022-12-29T06:23:40;7.60;99.90
22153;DHT22;11242;50.536;12.688;2022-12-29T06:26:05;7.60;99.90
22153;DHT22;11242;50.536;12.688;2022-12-29T06:28:32;7.50;99.90
22153;DHT22;11242;50.536;12.688;2022-12-29T06:30:57;7.50;99.90
22153;DHT22;11242;50.536;12.688;2022-12-29T06:33:23;7.50;99.90
22153;DHT22;11242;50.536;12.688;2022-12-29T06:35:49;7.60;99.90
22153;DHT22;11242;50.536;12.688;2022-12-29T06:38:15;7.60;99.90
22153;DHT22;11242;50.536;12.688;2022-12-29T06:40:42;7.60;99.90
22153;DHT22;11242;50.536;12.688;2022-12-29T06:43:43;7.60;99.90
22153;DHT22;11242;50.536;12.688;2022-12-29T06:46:18;7.60;99.90
22153;DHT22;11242;50.536;12.688;2022-12-29T06:48:44;7.60;99.90
22153;DHT22;11242;50.536;12.688;2022-12-29T06:51:09;7.60;99.90
22153;DHT22;11242;50.536;12.688;2022-12-29T06:53:35;7.50;99.90
22153;DHT22;11242;50.536;12.688;2022-12-29T06:56:01;7.30;99.90
22153;DHT22;11242;50.536;12.688;2022-12-29T06:58:26;7.20;99.90
22153;DHT22;11242;50.536;12.688;2022-12-29T07:00:52;7.00;99.90
22153;DHT22;11242;50.536;12.688;2022-12-29T07:03:17;7.00;99.90
22153;DHT22;11242;50.536;12.688;2022-12-29T07:05:43;7.00;99.90
22153;DHT22;11242;50.536;12.688;2022-12-29T07:08:08;6.90;99.90
22153;DHT22;11242;50.536;12.688;2022-12-29T07:10:34;7.00;99.90
22153;DHT22;11242;50.536;12.688;2022-12-29T07:13:00;7.10;99.90
22153;DHT22;11242;50.536;12.688;2022-12-29T07:15:25;7.00;99.90
22153;DHT22;11242;50.536;12.688;2022-12-29T07:17:51;6.90;99.90
22153;DHT22;11242;50.536;12.688;2022-12-29T07:20:17;6.90;99.90
22153;DHT22;11242;50.536;12.688;2022-12-29T07:22:42;7.00;99.90
22153;DHT22;11242;50.536;12.688;2022-12-29T07:25:08;7.10;99.90
22153;DHT22;11242;50.536;12.688;2022-12-29T07:27:34;7.00;99.90
22153;DHT22;11242;50.536;12.688;2022-12-29T07:30:00;7.00;99.90
22153;DHT22;11242;50.536;12.688;2022-12-29T07:32:25;7.10;99.90
22153;DHT22;11242;50.536;12.688;2022-12-29T07:34:51;7.20;99.90
22153;DHT22;11242;50.536;12.688;2022-12-29T07:37:17;7.10;99.90
22153;DHT22;11242;50.536;12.688;2022-12-29T07:39:43;7.20;99.90
22153;DHT22;11242;50.536;12.688;2022-12-29T07:42:11;7.30;99.90
22153;DHT22;11242;50.536;12.688;2022-12-29T07:44:41;7.40;99.90
22153;DHT22;11242;50.536;12.688;2022-12-29T07:47:15;7.50;99.90
22153;DHT22;11242;50.536;12.688;2022-12-29T07:49:41;7.60;99.90
22153;DHT22;11242;50.536;12.688;2022-12-29T07:52:06;7.50;99.90
22153;DHT22;11242;50.536;12.688;2022-12-29T07:54:32;7.50;99.90
22153;DHT22;11242;50.536;12.688;2022-12-29T07:56:57;7.60;99.90
22153;DHT22;11242;50.536;12.688;2022-12-29T07:59:25;7.60;99.90
22153;DHT22;11242;50.536;12.688;2022-12-29T08:01:51;7.70;99.90
22153;DHT22;11242;50.536;12.688;2022-12-29T08:04:16;7.60;99.90
22153;DHT22;11242;50.536;12.688;2022-12-29T08:06:42;7.60;99.90
22153;DHT22;11242;50.536;12.688;2022-12-29T08:09:08;7.60;99.90
22153;DHT22;11242;50.536;12.688;2022-12-29T08:11:33;7.60;99.90
22153;DHT22;11242;50.536;12.688;2022-12-29T08:13:59;7.60;99.90
22153;DHT22;11242;50.536;12.688;2022-12-29T08:16:24;7.60;99.90
22153;DHT22;11242;50.536;12.688;2022-12-29T08:18:50;7.70;99.90
22153;DHT22;11242;50.536;12.688;2022-12-29T08:21:16;7.70;99.90
22153;DHT22;11242;50.536;12.688;2022-12-29T08:23:41;7.70;99.90
22153;DHT22;11242;50.536;12.688;2022-12-29T08:26:07;7.70;99.90
22153;DHT22;11242;50.536;12.688;2022-12-29T08:28:33;7.60;99.90
22153;DHT22;11242;50.536;12.688;2022-12-29T08:31:00;7.60;99.90
22153;DHT22;11242;50.536;12.688;2022-12-29T08:33:26;7.70;99.90
22153;DHT22;11242;50.536;12.688;2022-12-29T08:35:52;7.80;99.90
22153;DHT22;11242;50.536;12.688;2022-12-29T08:38:17;7.90;99.90
22153;DHT22;11242;50.536;12.688;2022-12-29T08:40:43;7.90;99.90
22153;DHT22;11242;50.536;12.688;2022-12-29T08:43:09;8.10;99.90
22153;DHT22;11242;50.536;12.688;2022-12-29T08:45:35;8.30;99.90
22153;DHT22;11242;50.536;12.688;2022-12-29T08:48:00;8.30;99.90
22153;DHT22;11242;50.536;12.688;2022-12-29T08:50:26;8.30;99.90
22153;DHT22;11242;50.536;12.688;2022-12-29T08:52:52;8.40;99.90
22153;DHT22;11242;50.536;12.688;2022-12-29T08:55:17;8.50;99.90
22153;DHT22;11242;50.536;12.688;2022-12-29T08:57:43;8.50;99.90
22153;DHT22;11242;50.536;12.688;2022-12-29T09:00:19;8.50;99.90
22153;DHT22;11242;50.536;12.688;2022-12-29T09:02:46;8.60;99.90
22153;DHT22;11242;50.536;12.688;2022-12-29T09:05:11;8.60;99.90
22153;DHT22;11242;50.536;12.688;2022-12-29T09:07:37;8.70;99.90
22153;DHT22;11242;50.536;12.688;2022-12-29T09:10:04;8.80;99.90
22153;DHT22;11242;50.536;12.688;2022-12-29T09:12:29;8.70;99.90
22153;DHT22;11242;50.536;12.688;2022-12-29T09:14:55;8.80;99.90
22153;DHT22;11242;50.536;12.688;2022-12-29T09:17:20;8.70;99.90
22153;DHT22;11242;50.536;12.688;2022-12-29T09:20:05;8.60;99.90
22153;DHT22;11242;50.536;12.688;2022-12-29T09:22:31;8.60;99.90
22153;DHT22;11242;50.536;12.688;2022-12-29T09:24:56;8.60;99.90
22153;DHT22;11242;50.536;12.688;2022-12-29T09:27:22;8.60;99.90
22153;DHT22;11242;50.536;12.688;2022-12-29T09:29:47;8.60;99.90
22153;DHT22;11242;50.536;12.688;2022-12-29T09:32:13;8.50;99.90
22153;DHT22;11242;50.536;12.688;2022-12-29T09:34:38;8.50;99.90
22153;DHT22;11242;50.536;12.688;2022-12-29T09:37:04;8.60;99.90
22153;DHT22;11242;50.536;12.688;2022-12-29T09:39:30;8.70;99.90
22153;DHT22;11242;50.536;12.688;2022-12-29T09:42:17;8.60;99.90
22153;DHT22;11242;50.536;12.688;2022-12-29T09:44:48;8.60;99.90
22153;DHT22;11242;50.536;12.688;2022-12-29T09:47:16;8.70;99.90
22153;DHT22;11242;50.536;12.688;2022-12-29T09:49:53;8.70;99.90
22153;DHT22;11242;50.536;12.688;2022-12-29T09:52:22;8.70;99.90
22153;DHT22;11242;50.536;12.688;2022-12-29T09:57:36;8.60;99.90
22153;DHT22;11242;50.536;12.688;2022-12-29T10:03:19;8.60;99.90
22153;DHT22;11242;50.536;12.688;2022-12-29T10:05:50;8.70;99.90
22153;DHT22;11242;50.536;12.688;2022-12-29T10:17:01;8.90;99.90
22153;DHT22;11242;50.536;12.688;2022-12-29T10:19:38;9.00;99.90
22153;DHT22;11242;50.536;12.688;2022-12-29T10:24:51;9.00;99.90
22153;DHT22;11242;50.536;12.688;2022-12-29T10:27:18;9.10;99.90
22153;DHT22;11242;50.536;12.688;2022-12-29T10:29:55;9.10;99.90
22153;DHT22;11242;50.536;12.688;2022-12-29T10:32:27;9.10;99.90
22153;DHT22;11242;50.536;12.688;2022-12-29T10:35:03;9.20;99.90
22153;DHT22;11242;50.536;12.688;2022-12-29T10:37:45;9.20;99.90
22153;DHT22;11242;50.536;12.688;2022-12-29T10:40:34;9.20;99.90
22153;DHT22;11242;50.536;12.688;2022-12-29T10:43:20;9.20;99.90
22153;DHT22;11242;50.536;12.688;2022-12-29T10:45:47;9.20;99.90
22153;DHT22;11242;50.536;12.688;2022-12-29T10:48:22;9.30;99.90
22153;DHT22;11242;50.536;12.688;2022-12-29T10:50:50;9.40;99.90
22153;DHT22;11242;50.536;12.688;2022-12-29T10:53:23;9.50;99.90
22153;DHT22;11242;50.536;12.688;2022-12-29T10:55:50;9.50;99.90
22153;DHT22;11242;50.536;12.688;2022-12-29T10:58:17;9.50;99.90
22153;DHT22;11242;50.536;12.688;2022-12-29T11:00:49;9.60;99.90
22153;DHT22;11242;50.536;12.688;2022-12-29T11:05:54;9.70;99.90
22153;DHT22;11242;50.536;12.688;2022-12-29T11:08:26;9.60;99.90
22153;DHT22;11242;50.536;12.688;2022-12-29T11:11:05;9.40;99.90
22153;DHT22;11242;50.536;12.688;2022-12-29T11:13:46;9.40;99.90
22153;DHT22;11242;50.536;12.688;2022-12-29T11:16:12;9.40;99.90
22153;DHT22;11242;50.536;12.688;2022-12-29T11:18:38;9.40;99.90
22153;DHT22;11242;50.536;12.688;2022-12-29T11:21:38;9.40;99.90
22153;DHT22;11242;50.536;12.688;2022-12-29T11:24:27;9.40;99.90
22153;DHT22;11242;50.536;12.688;2022-12-29T11:26:55;9.40;99.90
22153;DHT22;11242;50.536;12.688;2022-12-29T11:29:25;9.50;99.90
22153;DHT22;11242;50.536;12.688;2022-12-29T11:31:57;9.50;99.90
22153;DHT22;11242;50.536;12.688;2022-12-29T11:34:32;9.40;99.90
22153;DHT22;11242;50.536;12.688;2022-12-29T11:37:09;9.50;99.90
22153;DHT22;11242;50.536;12.688;2022-12-29T11:40:02;9.50;99.90
22153;DHT22;11242;50.536;12.688;2022-12-29T11:42:41;9.50;99.90
22153;DHT22;11242;50.536;12.688;2022-12-29T11:45:28;9.60;99.90
22153;DHT22;11242;50.536;12.688;2022-12-29T11:48:19;9.70;99.90
22153;DHT22;11242;50.536;12.688;2022-12-29T11:50:52;9.70;99.90
22153;DHT22;11242;50.536;12.688;2022-12-29T11:53:24;9.70;99.90
22153;DHT22;11242;50.536;12.688;2022-12-29T11:55:56;9.80;99.90
22153;DHT22;11242;50.536;12.688;2022-12-29T11:58:37;9.80;99.90
22153;DHT22;11242;50.536;12.688;2022-12-29T12:01:34;9.90;99.90
22153;DHT22;11242;50.536;12.688;2022-12-29T12:04:06;9.80;99.90
22153;DHT22;11242;50.536;12.688;2022-12-29T12:06:36;9.80;99.90
22153;DHT22;11242;50.536;12.688;2022-12-29T12:09:14;9.80;99.90
22153;DHT22;11242;50.536;12.688;2022-12-29T12:11:43;9.70;99.90
22153;DHT22;11242;50.536;12.688;2022-12-29T12:17:38;9.80;99.90
22153;DHT22;11242;50.536;12.688;2022-12-29T12:20:22;9.80;99.90
22153;DHT22;11242;50.536;12.688;2022-12-29T12:23:06;9.80;99.90
22153;DHT22;11242;50.536;12.688;2022-12-29T12:25:43;9.80;99.90
22153;DHT22;11242;50.536;12.688;2022-12-29T12:28:20;9.90;99.90
22153;DHT22;11242;50.536;12.688;2022-12-29T12:30:49;9.90;99.90
22153;DHT22;11242;50.536;12.688;2022-12-29T12:33:38;9.90;99.90
22153;DHT22;11242;50.536;12.688;2022-12-29T12:36:43;9.90;99.90
22153;DHT22;11242;50.536;12.688;2022-12-29T12:45:20;9.80;99.90
22153;DHT22;11242;50.536;12.688;2022-12-29T12:53:26;9.70;99.90
22153;DHT22;11242;50.536;12.688;2022-12-29T12:56:05;9.70;99.90
22153;DHT22;11242;50.536;12.688;2022-12-29T12:58:54;9.80;99.90
22153;DHT22;11242;50.536;12.688;2022-12-29T13:06:40;9.80;99.90
22153;DHT22;11242;50.536;12.688;2022-12-29T13:12:00;9.70;99.90
22153;DHT22;11242;50.536;12.688;2022-12-29T13:17:37;9.80;99.90
22153;DHT22;11242;50.536;12.688;2022-12-29T13:20:27;9.80;99.90
22153;DHT22;11242;50.536;12.688;2022-12-29T13:30:58;9.90;99.90
22153;DHT22;11242;50.536;12.688;2022-12-29T13:36:38;10.10;99.90
22153;DHT22;11242;50.536;12.688;2022-12-29T13:39:28;10.20;99.90
22153;DHT22;11242;50.536;12.688;2022-12-29T13:41:56;10.20;99.90
22153;DHT22;11242;50.536;12.688;2022-12-29T13:44:31;10.30;99.90
22153;DHT22;11242;50.536;12.688;2022-12-29T13:47:01;10.20;99.90
22153;DHT22;11242;50.536;12.688;2022-12-29T13:49:30;10.30;99.90
22153;DHT22;11242;50.536;12.688;2022-12-29T13:52:10;10.30;99.90
22153;DHT22;11242;50.536;12.688;2022-12-29T13:57:39;10.20;99.90
22153;DHT22;11242;50.536;12.688;2022-12-29T14:00:17;10.20;99.90
22153;DHT22;11242;50.536;12.688;2022-12-29T14:03:10;10.30;99.90
22153;DHT22;11242;50.536;12.688;2022-12-29T14:05:34;10.30;99.90
22153;DHT22;11242;50.536;12.688;2022-12-29T14:08:05;10.20;99.90
22153;DHT22;11242;50.536;12.688;2022-12-29T14:10:47;10.30;99.90
22153;DHT22;11242;50.536;12.688;2022-12-29T14:13:16;10.20;99.90
22153;DHT22;11242;50.536;12.688;2022-12-29T14:15:45;10.20;99.90
22153;DHT22;11242;50.536;12.688;2022-12-29T14:18:29;10.20;99.90
22153;DHT22;11242;50.536;12.688;2022-12-29T14:21:17;10.10;99.90
22153;DHT22;11242;50.536;12.688;2022-12-29T14:23:46;10.10;99.90
22153;DHT22;11242;50.536;12.688;2022-12-29T14:26:33;10.00;99.90
22153;DHT22;11242;50.536;12.688;2022-12-29T14:31:42;9.80;99.90
22153;DHT22;11242;50.536;12.688;2022-12-29T14:39:40;9.50;99.90
22153;DHT22;11242;50.536;12.688;2022-12-29T14:47:40;9.30;99.90
22153;DHT22;11242;50.536;12.688;2022-12-29T14:52:49;9.20;99.90
22153;DHT22;11242;50.536;12.688;2022-12-29T14:57:43;9.10;99.90
22153;DHT22;11242;50.536;12.688;2022-12-29T15:02:53;9.00;99.90
22153;DHT22;11242;50.536;12.688;2022-12-29T15:05:27;8.90;99.90
22153;DHT22;11242;50.536;12.688;2022-12-29T15:07:55;8.90;99.90
22153;DHT22;11242;50.536;12.688;2022-12-29T15:10:23;8.90;99.90
22153;DHT22;11242;50.536;12.688;2022-12-29T15:12:53;8.80;99.90
22153;DHT22;11242;50.536;12.688;2022-12-29T15:15:26;8.80;99.90
22153;DHT22;11242;50.536;12.688;2022-12-29T15:17:53;8.70;99.90
22153;DHT22;11242;50.536;12.688;2022-12-29T15:23:11;8.50;99.90
22153;DHT22;11242;50.536;12.688;2022-12-29T15:25:46;8.50;99.90
22153;DHT22;11242;50.536;12.688;2022-12-29T15:28:13;8.50;99.90
22153;DHT22;11242;50.536;12.688;2022-12-29T15:30:57;8.50;99.90
22153;DHT22;11242;50.536;12.688;2022-12-29T15:33:27;8.40;99.90
22153;DHT22;11242;50.536;12.688;2022-12-29T15:35:55;8.30;99.90
22153;DHT22;11242;50.536;12.688;2022-12-29T15:38:28;8.20;99.90
22153;DHT22;11242;50.536;12.688;2022-12-29T15:41:00;8.10;99.90
22153;DHT22;11242;50.536;12.688;2022-12-29T15:44:08;8.10;99.90
22153;DHT22;11242;50.536;12.688;2022-12-29T15:46:36;8.00;99.90
22153;DHT22;11242;50.536;12.688;2022-12-29T15:49:06;8.00;99.90
22153;DHT22;11242;50.536;12.688;2022-12-29T15:51:36;7.90;99.90
22153;DHT22;11242;50.536;12.688;2022-12-29T15:54:02;7.90;99.90
22153;DHT22;11242;50.536;12.688;2022-12-29T15:56:29;7.90;99.90
22153;DHT22;11242;50.536;12.688;2022-12-29T15:58:55;7.90;99.90
22153;DHT22;11242;50.536;12.688;2022-12-29T16:01:31;7.90;99.90
22153;DHT22;11242;50.536;12.688;2022-12-29T16:03:59;7.80;99.90
22153;DHT22;11242;50.536;12.688;2022-12-29T16:06:31;7.60;99.90
22153;DHT22;11242;50.536;12.688;2022-12-29T16:09:01;7.70;99.90
22153;DHT22;11242;50.536;12.688;2022-12-29T16:11:36;7.80;99.90
22153;DHT22;11242;50.536;12.688;2022-12-29T16:14:07;7.70;99.90
22153;DHT22;11242;50.536;12.688;2022-12-29T16:16:39;7.60;99.90
22153;DHT22;11242;50.536;12.688;2022-12-29T16:19:36;7.60;99.90
22153;DHT22;11242;50.536;12.688;2022-12-29T16:22:09;7.50;99.90
22153;DHT22;11242;50.536;12.688;2022-12-29T16:24:38;7.50;99.90
22153;DHT22;11242;50.536;12.688;2022-12-29T16:27:13;7.60;99.90
22153;DHT22;11242;50.536;12.688;2022-12-29T16:29:40;7.50;99.90
22153;DHT22;11242;50.536;12.688;2022-12-29T16:32:33;7.40;99.90
22153;DHT22;11242;50.536;12.688;2022-12-29T16:35:12;7.40;99.90
22153;DHT22;11242;50.536;12.688;2022-12-29T16:37:38;7.50;99.90
22153;DHT22;11242;50.536;12.688;2022-12-29T16:42:49;7.40;99.90
22153;DHT22;11242;50.536;12.688;2022-12-29T16:46:08;7.40;99.90
22153;DHT22;11242;50.536;12.688;2022-12-29T16:48:32;7.60;99.90
22153;DHT22;11242;50.536;12.688;2022-12-29T16:51:28;7.60;99.90
22153;DHT22;11242;50.536;12.688;2022-12-29T16:53:55;7.70;99.90
22153;DHT22;11242;50.536;12.688;2022-12-29T16:56:24;7.70;99.90
22153;DHT22;11242;50.536;12.688;2022-12-29T16:59:04;7.80;99.90
22153;DHT22;11242;50.536;12.688;2022-12-29T17:01:31;7.70;99.90
22153;DHT22;11242;50.536;12.688;2022-12-29T17:04:00;7.60;99.90
22153;DHT22;11242;50.536;12.688;2022-12-29T17:06:26;7.50;99.90
22153;DHT22;11242;50.536;12.688;2022-12-29T17:08:52;7.50;99.90
22153;DHT22;11242;50.536;12.688;2022-12-29T17:11:26;7.50;99.90
22153;DHT22;11242;50.536;12.688;2022-12-29T17:14:47;7.60;99.90
22153;DHT22;11242;50.536;12.688;2022-12-29T17:19:50;7.30;99.90
22153;DHT22;11242;50.536;12.688;2022-12-29T17:22:20;7.30;99.90
22153;DHT22;11242;50.536;12.688;2022-12-29T17:24:46;7.30;99.90
22153;DHT22;11242;50.536;12.688;2022-12-29T17:27:41;7.20;99.90
22153;DHT22;11242;50.536;12.688;2022-12-29T17:30:15;7.20;99.90
22153;DHT22;11242;50.536;12.688;2022-12-29T17:32:43;7.00;99.90
22153;DHT22;11242;50.536;12.688;2022-12-29T17:35:15;7.10;99.90
22153;DHT22;11242;50.536;12.688;2022-12-29T17:37:41;7.30;99.90
22153;DHT22;11242;50.536;12.688;2022-12-29T17:40:10;7.30;99.90
22153;DHT22;11242;50.536;12.688;2022-12-29T17:42:42;7.20;99.90
22153;DHT22;11242;50.536;12.688;2022-12-29T17:45:13;7.00;99.90
22153;DHT22;11242;50.536;12.688;2022-12-29T17:47:39;7.20;99.90
22153;DHT22;11242;50.536;12.688;2022-12-29T17:50:05;7.30;99.90
22153;DHT22;11242;50.536;12.688;2022-12-29T17:52:31;7.40;99.90
22153;DHT22;11242;50.536;12.688;2022-12-29T17:54:57;7.40;99.90
22153;DHT22;11242;50.536;12.688;2022-12-29T17:57:23;7.30;99.90
22153;DHT22;11242;50.536;12.688;2022-12-29T17:59:48;7.40;99.90
22153;DHT22;11242;50.536;12.688;2022-12-29T18:02:29;7.40;99.90
22153;DHT22;11242;50.536;12.688;2022-12-29T18:04:57;7.40;99.90
22153;DHT22;11242;50.536;12.688;2022-12-29T18:07:26;7.50;99.90
22153;DHT22;11242;50.536;12.688;2022-12-29T18:09:52;7.60;99.90
22153;DHT22;11242;50.536;12.688;2022-12-29T18:12:36;7.70;99.90